sensor_id;sensor_type;location;lat;lon;timestamp;temperature;humidity
19920;DHT22;10122;50.074;19.920;2023-06-22T00:01:44;23.20;99.90
19920;DHT22;10122;50.074;19.920;2023-06-22T00:04:10;23.20;99.90
19920;DHT22;10122;50.074;19.920;2023-06-22T00:06:35;23.20;99.90
19920;DHT22;10122;50.074;19.920;2023-06-22T00:09:01;23.20;99.90
19920;DHT22;10122;50.074;19.920;2023-06-22T00:11:27;23.20;99.90
19920;DHT22;10122;50.074;19.920;2023-06-22T00:13:53;23.10;99.90
19920;DHT22;10122;50.074;19.920;2023-06-22T00:16:18;23.10;99.90
19920;DHT22;10122;50.074;19.920;2023-06-22T00:18:44;23.10;99.90
19920;DHT22;10122;50.074;19.920;2023-06-22T00:21:13;23.10;99.90
19920;DHT22;10122;50.074;19.920;2023-06-22T00:23:38;23.10;99.90
19920;DHT22;10122;50.074;19.920;2023-06-22T00:26:04;23.10;99.90
19920;DHT22;10122;50.074;19.920;2023-06-22T00:28:30;23.10;99.90
19920;DHT22;10122;50.074;19.920;2023-06-22T00:30:55;23.10;99.90
19920;DHT22;10122;50.074;19.920;2023-06-22T00:33:21;23.10;99.90
19920;DHT22;10122;50.074;19.920;2023-06-22T00:35:47;23.10;99.90
19920;DHT22;10122;50.074;19.920;2023-06-22T00:38:12;23.10;99.90
19920;DHT22;10122;50.074;19.920;2023-06-22T00:40:38;23.10;99.90
19920;DHT22;10122;50.074;19.920;2023-06-22T00:43:05;23.10;99.90
19920;DHT22;10122;50.074;19.920;2023-06-22T00:45:31;23.10;99.90
19920;DHT22;10122;50.074;19.920;2023-06-22T00:47:58;23.20;99.90
19920;DHT22;10122;50.074;19.920;2023-06-22T00:50:32;23.20;99.90
19920;DHT22;10122;50.074;19.920;2023-06-22T00:53:04;23.10;99.90
19920;DHT22;10122;50.074;19.920;2023-06-22T00:55:38;23.10;99.90
19920;DHT22;10122;50.074;19.920;2023-06-22T00:58:09;23.00;99.90
19920;DHT22;10122;50.074;19.920;2023-06-22T01:00:37;23.00;99.90
19920;DHT22;10122;50.074;19.920;2023-06-22T01:03:03;22.90;99.90
19920;DHT22;10122;50.074;19.920;2023-06-22T01:05:31;22.90;99.90
19920;DHT22;10122;50.074;19.920;2023-06-22T01:08:16;22.80;99.90
19920;DHT22;10122;50.074;19.920;2023-06-22T01:10:53;22.80;99.90
19920;DHT22;10122;50.074;19.920;2023-06-22T01:15:57;22.70;99.90
19920;DHT22;10122;50.074;19.920;2023-06-22T01:18:29;22.70;99.90
19920;DHT22;10122;50.074;19.920;2023-06-22T01:20:56;22.70;99.90
19920;DHT22;10122;50.074;19.920;2023-06-22T01:28:53;22.60;99.90
19920;DHT22;10122;50.074;19.920;2023-06-22T01:31:23;22.50;99.90
19920;DHT22;10122;50.074;19.920;2023-06-22T01:33:55;22.50;99.90
19920;DHT22;10122;50.074;19.920;2023-06-22T01:36:23;22.50;99.90
19920;DHT22;10122;50.074;19.920;2023-06-22T01:38:49;22.50;99.90
19920;DHT22;10122;50.074;19.920;2023-06-22T01:41:24;22.50;99.90
19920;DHT22;10122;50.074;19.920;2023-06-22T01:43:51;22.50;99.90
19920;DHT22;10122;50.074;19.920;2023-06-22T01:46:18;22.50;99.90
19920;DHT22;10122;50.074;19.920;2023-06-22T01:48:45;22.50;99.90
19920;DHT22;10122;50.074;19.920;2023-06-22T01:51:12;22.50;99.90
19920;DHT22;10122;50.074;19.920;2023-06-22T01:53:37;22.50;99.90
19920;DHT22;10122;50.074;19.920;2023-06-22T01:56:04;22.50;99.90
19920;DHT22;10122;50.074;19.920;2023-06-22T01:58:30;22.50;99.90
19920;DHT22;10122;50.074;19.920;2023-06-22T02:01:06;22.50;99.90
19920;DHT22;10122;50.074;19.920;2023-06-22T02:03:41;22.40;99.90
19920;DHT22;10122;50.074;19.920;2023-06-22T02:06:14;22.40;99.90
19920;DHT22;10122;50.074;19.920;2023-06-22T02:08:47;22.40;99.90
19920;DHT22;10122;50.074;19.920;2023-06-22T02:11:15;22.30;99.90
19920;DHT22;10122;50.074;19.920;2023-06-22T02:13:42;22.30;99.90
19920;DHT22;10122;50.074;19.920;2023-06-22T02:16:12;22.30;99.90
19920;DHT22;10122;50.074;19.920;2023-06-22T02:18:38;22.30;99.90
19920;DHT22;10122;50.074;19.920;2023-06-22T02:21:06;22.30;99.90
19920;DHT22;10122;50.074;19.920;2023-06-22T02:23:32;22.30;99.90
19920;DHT22;10122;50.074;19.920;2023-06-22T02:26:02;22.20;99.90
19920;DHT22;10122;50.074;19.920;2023-06-22T02:28:28;22.20;99.90
19920;DHT22;10122;50.074;19.920;2023-06-22T02:30:54;22.20;99.90
19920;DHT22;10122;50.074;19.920;2023-06-22T02:33:20;22.20;99.90
19920;DHT22;10122;50.074;19.920;2023-06-22T02:35:45;22.10;99.90
19920;DHT22;10122;50.074;19.920;2023-06-22T02:38:14;22.10;99.90
19920;DHT22;10122;50.074;19.920;2023-06-22T02:40:40;22.10;99.90
19920;DHT22;10122;50.074;19.920;2023-06-22T02:43:06;22.10;99.90
19920;DHT22;10122;50.074;19.920;2023-06-22T02:45:32;22.00;99.90
19920;DHT22;10122;50.074;19.920;2023-06-22T02:47:58;22.00;99.90
19920;DHT22;10122;50.074;19.920;2023-06-22T02:50:23;22.00;99.90
19920;DHT22;10122;50.074;19.920;2023-06-22T02:52:49;22.00;99.90
19920;DHT22;10122;50.074;19.920;2023-06-22T02:55:15;22.00;99.90
19920;DHT22;10122;50.074;19.920;2023-06-22T02:57:41;22.00;99.90
19920;DHT22;10122;50.074;19.920;2023-06-22T03:00:09;22.00;99.90
19920;DHT22;10122;50.074;19.920;2023-06-22T03:02:56;22.00;99.90
19920;DHT22;10122;50.074;19.920;2023-06-22T03:05:22;21.90;99.90
19920;DHT22;10122;50.074;19.920;2023-06-22T03:07:48;22.00;99.90
19920;DHT22;10122;50.074;19.920;2023-06-22T03:10:15;21.90;99.90
19920;DHT22;10122;50.074;19.920;2023-06-22T03:12:41;22.00;99.90
19920;DHT22;10122;50.074;19.920;2023-06-22T03:15:11;21.90;99.90
19920;DHT22;10122;50.074;19.920;2023-06-22T03:17:38;21.90;99.90
19920;DHT22;10122;50.074;19.920;2023-06-22T03:20:05;21.90;99.90
19920;DHT22;10122;50.074;19.920;2023-06-22T03:22:36;21.90;99.90
19920;DHT22;10122;50.074;19.920;2023-06-22T03:25:02;21.90;99.90
19920;DHT22;10122;50.074;19.920;2023-06-22T03:27:28;21.90;99.90
19920;DHT22;10122;50.074;19.920;2023-06-22T03:29:54;21.90;99.90
19920;DHT22;10122;50.074;19.920;2023-06-22T03:32:19;21.90;99.90
19920;DHT22;10122;50.074;19.920;2023-06-22T03:34:45;21.90;99.90
19920;DHT22;10122;50.074;19.920;2023-06-22T03:37:14;21.90;99.90
19920;DHT22;10122;50.074;19.920;2023-06-22T03:39:41;21.90;99.90
19920;DHT22;10122;50.074;19.920;2023-06-22T03:42:07;21.90;99.90
19920;DHT22;10122;50.074;19.920;2023-06-22T03:44:33;21.90;99.90
19920;DHT22;10122;50.074;19.920;2023-06-22T03:46:58;21.90;99.90
19920;DHT22;10122;50.074;19.920;2023-06-22T03:49:24;22.00;99.90
19920;DHT22;10122;50.074;19.920;2023-06-22T03:51:50;21.90;99.90
19920;DHT22;10122;50.074;19.920;2023-06-22T03:54:15;21.90;99.90
19920;DHT22;10122;50.074;19.920;2023-06-22T03:56:41;22.00;99.90
19920;DHT22;10122;50.074;19.920;2023-06-22T03:59:07;22.10;99.90
19920;DHT22;10122;50.074;19.920;2023-06-22T04:01:32;22.10;99.90
19920;DHT22;10122;50.074;19.920;2023-06-22T04:03:58;22.10;99.90
19920;DHT22;10122;50.074;19.920;2023-06-22T04:06:24;22.20;99.90
19920;DHT22;10122;50.074;19.920;2023-06-22T04:08:49;22.20;99.90
19920;DHT22;10122;50.074;19.920;2023-06-22T04:11:17;22.20;99.90
19920;DHT22;10122;50.074;19.920;2023-06-22T04:13:44;22.20;99.90
19920;DHT22;10122;50.074;19.920;2023-06-22T04:16:09;22.30;99.90
19920;DHT22;10122;50.074;19.920;2023-06-22T04:18:35;22.30;99.90
19920;DHT22;10122;50.074;19.920;2023-06-22T04:21:02;22.40;99.90
19920;DHT22;10122;50.074;19.920;2023-06-22T04:23:28;22.50;99.90
19920;DHT22;10122;50.074;19.920;2023-06-22T04:25:54;22.60;99.90
19920;DHT22;10122;50.074;19.920;2023-06-22T04:28:22;22.60;99.90
19920;DHT22;10122;50.074;19.920;2023-06-22T04:30:47;22.70;99.90
19920;DHT22;10122;50.074;19.920;2023-06-22T04:33:16;22.70;99.90
19920;DHT22;10122;50.074;19.920;2023-06-22T04:35:45;22.80;99.90
19920;DHT22;10122;50.074;19.920;2023-06-22T04:38:12;22.80;99.90
19920;DHT22;10122;50.074;19.920;2023-06-22T04:40:39;22.90;99.90
19920;DHT22;10122;50.074;19.920;2023-06-22T04:43:05;23.00;99.90
19920;DHT22;10122;50.074;19.920;2023-06-22T04:45:32;23.10;99.90
19920;DHT22;10122;50.074;19.920;2023-06-22T04:47:58;23.20;99.90
19920;DHT22;10122;50.074;19.920;2023-06-22T04:50:24;23.30;99.90
19920;DHT22;10122;50.074;19.920;2023-06-22T04:52:50;23.40;99.90
19920;DHT22;10122;50.074;19.920;2023-06-22T04:55:16;23.40;99.90
19920;DHT22;10122;50.074;19.920;2023-06-22T04:57:44;23.50;99.90
19920;DHT22;10122;50.074;19.920;2023-06-22T05:00:15;23.50;99.90
19920;DHT22;10122;50.074;19.920;2023-06-22T05:02:43;23.60;99.90
19920;DHT22;10122;50.074;19.920;2023-06-22T05:05:10;23.70;99.90
19920;DHT22;10122;50.074;19.920;2023-06-22T05:07:39;23.80;99.90
19920;DHT22;10122;50.074;19.920;2023-06-22T05:10:09;23.90;99.90
19920;DHT22;10122;50.074;19.920;2023-06-22T05:12:36;24.00;99.90
19920;DHT22;10122;50.074;19.920;2023-06-22T05:15:01;24.00;99.90
19920;DHT22;10122;50.074;19.920;2023-06-22T05:17:27;24.00;99.90
19920;DHT22;10122;50.074;19.920;2023-06-22T05:19:53;24.10;99.90
19920;DHT22;10122;50.074;19.920;2023-06-22T05:22:19;24.10;99.90
19920;DHT22;10122;50.074;19.920;2023-06-22T05:24:45;24.20;99.90
19920;DHT22;10122;50.074;19.920;2023-06-22T05:27:11;24.30;99.90
19920;DHT22;10122;50.074;19.920;2023-06-22T05:29:37;24.40;99.90
19920;DHT22;10122;50.074;19.920;2023-06-22T05:32:03;24.40;99.90
19920;DHT22;10122;50.074;19.920;2023-06-22T05:34:29;24.40;99.90
19920;DHT22;10122;50.074;19.920;2023-06-22T05:36:55;24.60;99.90
19920;DHT22;10122;50.074;19.920;2023-06-22T05:39:21;24.60;99.90
19920;DHT22;10122;50.074;19.920;2023-06-22T05:41:46;24.80;99.90
19920;DHT22;10122;50.074;19.920;2023-06-22T05:44:12;25.00;99.90
19920;DHT22;10122;50.074;19.920;2023-06-22T05:46:42;25.20;99.90
19920;DHT22;10122;50.074;19.920;2023-06-22T05:49:15;25.60;99.90
19920;DHT22;10122;50.074;19.920;2023-06-22T05:51:41;26.20;99.90
19920;DHT22;10122;50.074;19.920;2023-06-22T05:54:07;26.70;99.90
19920;DHT22;10122;50.074;19.920;2023-06-22T05:56:38;27.40;99.90
19920;DHT22;10122;50.074;19.920;2023-06-22T05:59:04;28.10;99.90
19920;DHT22;10122;50.074;19.920;2023-06-22T06:01:30;28.70;99.90
19920;DHT22;10122;50.074;19.920;2023-06-22T06:04:00;29.00;99.90
19920;DHT22;10122;50.074;19.920;2023-06-22T06:06:25;29.30;99.90
19920;DHT22;10122;50.074;19.920;2023-06-22T06:08:54;29.40;99.90
19920;DHT22;10122;50.074;19.920;2023-06-22T06:11:19;29.60;99.90
19920;DHT22;10122;50.074;19.920;2023-06-22T06:13:45;29.90;99.90
19920;DHT22;10122;50.074;19.920;2023-06-22T06:16:11;30.20;99.90
19920;DHT22;10122;50.074;19.920;2023-06-22T06:18:36;30.60;99.90
19920;DHT22;10122;50.074;19.920;2023-06-22T06:21:03;30.90;99.90
19920;DHT22;10122;50.074;19.920;2023-06-22T06:23:28;31.20;99.90
19920;DHT22;10122;50.074;19.920;2023-06-22T06:25:54;31.60;99.90
19920;DHT22;10122;50.074;19.920;2023-06-22T06:28:20;31.90;99.90
19920;DHT22;10122;50.074;19.920;2023-06-22T06:30:45;32.10;99.90
19920;DHT22;10122;50.074;19.920;2023-06-22T06:33:13;32.50;99.90
19920;DHT22;10122;50.074;19.920;2023-06-22T06:35:38;32.80;99.90
19920;DHT22;10122;50.074;19.920;2023-06-22T06:38:04;33.00;99.90
19920;DHT22;10122;50.074;19.920;2023-06-22T06:40:30;33.00;99.90
19920;DHT22;10122;50.074;19.920;2023-06-22T06:42:56;33.00;99.90
19920;DHT22;10122;50.074;19.920;2023-06-22T06:45:23;33.20;99.90
19920;DHT22;10122;50.074;19.920;2023-06-22T06:47:49;33.40;99.90
19920;DHT22;10122;50.074;19.920;2023-06-22T06:50:15;33.60;99.90
19920;DHT22;10122;50.074;19.920;2023-06-22T06:52:42;33.60;99.90
19920;DHT22;10122;50.074;19.920;2023-06-22T06:55:08;33.20;99.90
19920;DHT22;10122;50.074;19.920;2023-06-22T06:57:37;32.80;99.90
19920;DHT22;10122;50.074;19.920;2023-06-22T07:00:05;32.60;99.90
19920;DHT22;10122;50.074;19.920;2023-06-22T07:02:35;32.30;99.90
19920;DHT22;10122;50.074;19.920;2023-06-22T07:05:01;32.00;99.90
19920;DHT22;10122;50.074;19.920;2023-06-22T07:07:29;31.80;99.90
19920;DHT22;10122;50.074;19.920;2023-06-22T07:09:54;31.80;99.90
19920;DHT22;10122;50.074;19.920;2023-06-22T07:12:20;31.90;99.90
19920;DHT22;10122;50.074;19.920;2023-06-22T07:14:46;31.80;99.90
19920;DHT22;10122;50.074;19.920;2023-06-22T07:17:12;32.00;99.90
19920;DHT22;10122;50.074;19.920;2023-06-22T07:19:37;32.70;99.90
19920;DHT22;10122;50.074;19.920;2023-06-22T07:22:04;33.50;99.90
19920;DHT22;10122;50.074;19.920;2023-06-22T07:24:30;34.20;99.90
19920;DHT22;10122;50.074;19.920;2023-06-22T07:26:58;34.70;98.70
19920;DHT22;10122;50.074;19.920;2023-06-22T07:29:24;35.20;97.30
19920;DHT22;10122;50.074;19.920;2023-06-22T07:31:50;35.50;96.10
19920;DHT22;10122;50.074;19.920;2023-06-22T07:34:22;35.70;94.50
19920;DHT22;10122;50.074;19.920;2023-06-22T07:36:48;35.80;93.90
19920;DHT22;10122;50.074;19.920;2023-06-22T07:39:13;35.60;93.50
19920;DHT22;10122;50.074;19.920;2023-06-22T07:41:40;35.10;94.00
19920;DHT22;10122;50.074;19.920;2023-06-22T07:44:08;35.10;93.90
19920;DHT22;10122;50.074;19.920;2023-06-22T07:46:34;34.90;93.60
19920;DHT22;10122;50.074;19.920;2023-06-22T07:49:00;35.00;92.90
19920;DHT22;10122;50.074;19.920;2023-06-22T07:51:27;35.00;92.50
19920;DHT22;10122;50.074;19.920;2023-06-22T07:53:52;35.10;92.80
19920;DHT22;10122;50.074;19.920;2023-06-22T07:56:18;35.10;91.90
19920;DHT22;10122;50.074;19.920;2023-06-22T07:58:47;35.10;91.50
19920;DHT22;10122;50.074;19.920;2023-06-22T08:01:16;35.20;91.50
19920;DHT22;10122;50.074;19.920;2023-06-22T08:03:43;35.40;91.60
19920;DHT22;10122;50.074;19.920;2023-06-22T08:06:09;35.90;91.00
19920;DHT22;10122;50.074;19.920;2023-06-22T08:08:36;36.40;90.20
19920;DHT22;10122;50.074;19.920;2023-06-22T08:11:02;36.70;88.20
19920;DHT22;10122;50.074;19.920;2023-06-22T08:13:27;37.00;86.70
19920;DHT22;10122;50.074;19.920;2023-06-22T08:15:53;36.80;85.50
19920;DHT22;10122;50.074;19.920;2023-06-22T08:18:19;36.50;85.00
19920;DHT22;10122;50.074;19.920;2023-06-22T08:20:45;36.40;86.00
19920;DHT22;10122;50.074;19.920;2023-06-22T08:23:11;36.30;85.50
19920;DHT22;10122;50.074;19.920;2023-06-22T08:25:36;36.40;85.40
19920;DHT22;10122;50.074;19.920;2023-06-22T08:28:03;36.40;85.10
19920;DHT22;10122;50.074;19.920;2023-06-22T08:30:30;36.40;84.50
19920;DHT22;10122;50.074;19.920;2023-06-22T08:32:55;36.20;85.90
19920;DHT22;10122;50.074;19.920;2023-06-22T08:35:24;35.50;86.40
19920;DHT22;10122;50.074;19.920;2023-06-22T08:37:50;34.80;88.50
19920;DHT22;10122;50.074;19.920;2023-06-22T08:40:21;34.10;90.10
19920;DHT22;10122;50.074;19.920;2023-06-22T08:42:47;34.00;90.90
19920;DHT22;10122;50.074;19.920;2023-06-22T08:45:13;34.40;90.90
19920;DHT22;10122;50.074;19.920;2023-06-22T08:47:40;34.90;90.30
19920;DHT22;10122;50.074;19.920;2023-06-22T08:50:10;35.40;87.90
19920;DHT22;10122;50.074;19.920;2023-06-22T08:52:37;35.80;85.90
19920;DHT22;10122;50.074;19.920;2023-06-22T08:55:03;36.20;84.00
19920;DHT22;10122;50.074;19.920;2023-06-22T08:57:29;36.50;83.20
19920;DHT22;10122;50.074;19.920;2023-06-22T08:59:56;36.80;82.60
19920;DHT22;10122;50.074;19.920;2023-06-22T09:02:24;37.00;81.40
19920;DHT22;10122;50.074;19.920;2023-06-22T09:04:50;37.00;79.40
19920;DHT22;10122;50.074;19.920;2023-06-22T09:07:21;36.50;79.80
19920;DHT22;10122;50.074;19.920;2023-06-22T09:09:49;36.30;79.30
19920;DHT22;10122;50.074;19.920;2023-06-22T09:12:14;36.20;78.10
19920;DHT22;10122;50.074;19.920;2023-06-22T09:14:40;36.00;79.00
19920;DHT22;10122;50.074;19.920;2023-06-22T09:17:06;36.10;80.10
19920;DHT22;10122;50.074;19.920;2023-06-22T09:19:32;36.20;80.00
19920;DHT22;10122;50.074;19.920;2023-06-22T09:21:58;36.30;79.60
19920;DHT22;10122;50.074;19.920;2023-06-22T09:24:24;36.40;79.20
19920;DHT22;10122;50.074;19.920;2023-06-22T09:26:49;36.50;78.60
19920;DHT22;10122;50.074;19.920;2023-06-22T09:29:15;36.50;78.20
19920;DHT22;10122;50.074;19.920;2023-06-22T09:31:41;36.60;77.50
19920;DHT22;10122;50.074;19.920;2023-06-22T09:34:07;36.50;76.90
19920;DHT22;10122;50.074;19.920;2023-06-22T09:36:32;36.50;77.10
19920;DHT22;10122;50.074;19.920;2023-06-22T09:38:58;36.40;77.30
19920;DHT22;10122;50.074;19.920;2023-06-22T09:41:25;36.40;77.70
19920;DHT22;10122;50.074;19.920;2023-06-22T09:43:50;36.30;77.60
19920;DHT22;10122;50.074;19.920;2023-06-22T09:46:16;36.20;77.40
19920;DHT22;10122;50.074;19.920;2023-06-22T09:48:42;36.20;77.40
19920;DHT22;10122;50.074;19.920;2023-06-22T09:51:08;36.00;76.50
19920;DHT22;10122;50.074;19.920;2023-06-22T09:53:34;35.60;77.50
19920;DHT22;10122;50.074;19.920;2023-06-22T09:56:03;35.40;78.50
19920;DHT22;10122;50.074;19.920;2023-06-22T09:58:29;35.10;78.90
19920;DHT22;10122;50.074;19.920;2023-06-22T10:00:55;35.00;79.50
19920;DHT22;10122;50.074;19.920;2023-06-22T10:03:21;35.00;79.90
19920;DHT22;10122;50.074;19.920;2023-06-22T10:05:47;34.90;80.20
19920;DHT22;10122;50.074;19.920;2023-06-22T10:08:12;34.60;80.10
19920;DHT22;10122;50.074;19.920;2023-06-22T10:10:38;34.50;80.30
19920;DHT22;10122;50.074;19.920;2023-06-22T10:13:10;34.30;80.00
19920;DHT22;10122;50.074;19.920;2023-06-22T10:15:37;34.10;79.80
19920;DHT22;10122;50.074;19.920;2023-06-22T10:18:03;33.70;81.30
19920;DHT22;10122;50.074;19.920;2023-06-22T10:20:29;33.50;82.70
19920;DHT22;10122;50.074;19.920;2023-06-22T10:22:54;33.40;83.30
19920;DHT22;10122;50.074;19.920;2023-06-22T10:25:21;33.20;83.50
19920;DHT22;10122;50.074;19.920;2023-06-22T10:27:46;33.10;84.20
19920;DHT22;10122;50.074;19.920;2023-06-22T10:30:13;33.00;84.90
19920;DHT22;10122;50.074;19.920;2023-06-22T10:32:39;33.10;86.60
19920;DHT22;10122;50.074;19.920;2023-06-22T10:35:05;33.20;85.50
19920;DHT22;10122;50.074;19.920;2023-06-22T10:37:31;33.40;83.90
19920;DHT22;10122;50.074;19.920;2023-06-22T10:39:57;33.50;83.80
19920;DHT22;10122;50.074;19.920;2023-06-22T10:42:23;33.30;83.30
19920;DHT22;10122;50.074;19.920;2023-06-22T10:44:49;33.20;83.60
19920;DHT22;10122;50.074;19.920;2023-06-22T10:47:14;33.10;83.20
19920;DHT22;10122;50.074;19.920;2023-06-22T10:49:40;33.00;83.50
19920;DHT22;10122;50.074;19.920;2023-06-22T10:52:07;33.00;83.90
19920;DHT22;10122;50.074;19.920;2023-06-22T10:54:34;33.10;84.20
19920;DHT22;10122;50.074;19.920;2023-06-22T10:57:01;33.10;83.20
19920;DHT22;10122;50.074;19.920;2023-06-22T10:59:27;33.10;83.40
19920;DHT22;10122;50.074;19.920;2023-06-22T11:01:54;32.80;83.80
19920;DHT22;10122;50.074;19.920;2023-06-22T11:04:20;32.60;84.20
19920;DHT22;10122;50.074;19.920;2023-06-22T11:06:47;32.50;84.30
19920;DHT22;10122;50.074;19.920;2023-06-22T11:09:13;32.20;84.40
19920;DHT22;10122;50.074;19.920;2023-06-22T11:11:44;32.00;85.70
19920;DHT22;10122;50.074;19.920;2023-06-22T11:14:10;31.90;86.80
19920;DHT22;10122;50.074;19.920;2023-06-22T11:16:36;31.70;86.90
19920;DHT22;10122;50.074;19.920;2023-06-22T11:19:01;31.50;87.70
19920;DHT22;10122;50.074;19.920;2023-06-22T11:21:28;31.50;88.80
19920;DHT22;10122;50.074;19.920;2023-06-22T11:23:54;31.50;89.30
19920;DHT22;10122;50.074;19.920;2023-06-22T11:26:20;31.50;89.40
19920;DHT22;10122;50.074;19.920;2023-06-22T11:28:46;31.60;89.50
19920;DHT22;10122;50.074;19.920;2023-06-22T11:31:12;31.70;89.50
19920;DHT22;10122;50.074;19.920;2023-06-22T11:33:38;31.70;89.90
19920;DHT22;10122;50.074;19.920;2023-06-22T11:36:04;31.60;88.50
19920;DHT22;10122;50.074;19.920;2023-06-22T11:38:30;31.60;88.80
19920;DHT22;10122;50.074;19.920;2023-06-22T11:41:00;31.60;88.70
19920;DHT22;10122;50.074;19.920;2023-06-22T11:43:26;31.60;88.90
19920;DHT22;10122;50.074;19.920;2023-06-22T11:45:51;31.50;88.60
19920;DHT22;10122;50.074;19.920;2023-06-22T11:48:17;31.50;89.00
19920;DHT22;10122;50.074;19.920;2023-06-22T11:50:43;31.60;89.20
19920;DHT22;10122;50.074;19.920;2023-06-22T11:53:08;31.60;88.90
19920;DHT22;10122;50.074;19.920;2023-06-22T11:55:34;31.70;87.70
19920;DHT22;10122;50.074;19.920;2023-06-22T11:58:00;31.50;88.00
19920;DHT22;10122;50.074;19.920;2023-06-22T12:00:29;31.30;88.70
19920;DHT22;10122;50.074;19.920;2023-06-22T12:02:55;31.20;90.10
19920;DHT22;10122;50.074;19.920;2023-06-22T12:05:21;31.20;89.50
19920;DHT22;10122;50.074;19.920;2023-06-22T12:07:48;31.20;89.00
19920;DHT22;10122;50.074;19.920;2023-06-22T12:10:14;31.30;89.50
19920;DHT22;10122;50.074;19.920;2023-06-22T12:12:40;31.40;89.40
19920;DHT22;10122;50.074;19.920;2023-06-22T12:15:06;31.40;89.20
19920;DHT22;10122;50.074;19.920;2023-06-22T12:17:33;31.40;89.70
19920;DHT22;10122;50.074;19.920;2023-06-22T12:19:59;31.50;88.60
19920;DHT22;10122;50.074;19.920;2023-06-22T12:22:25;31.60;88.50
19920;DHT22;10122;50.074;19.920;2023-06-22T12:24:50;31.70;88.20
19920;DHT22;10122;50.074;19.920;2023-06-22T12:27:17;31.80;88.10
19920;DHT22;10122;50.074;19.920;2023-06-22T12:29:46;31.80;87.90
19920;DHT22;10122;50.074;19.920;2023-06-22T12:32:13;31.80;87.50
19920;DHT22;10122;50.074;19.920;2023-06-22T12:34:39;31.70;87.40
19920;DHT22;10122;50.074;19.920;2023-06-22T12:37:05;31.70;87.40
19920;DHT22;10122;50.074;19.920;2023-06-22T12:39:31;31.80;87.00
19920;DHT22;10122;50.074;19.920;2023-06-22T12:41:57;31.80;87.00
19920;DHT22;10122;50.074;19.920;2023-06-22T12:44:23;31.70;86.60
19920;DHT22;10122;50.074;19.920;2023-06-22T12:46:49;31.60;87.40
19920;DHT22;10122;50.074;19.920;2023-06-22T12:49:15;31.50;88.10
19920;DHT22;10122;50.074;19.920;2023-06-22T12:51:41;31.40;88.20
19920;DHT22;10122;50.074;19.920;2023-06-22T12:54:07;31.40;88.10
19920;DHT22;10122;50.074;19.920;2023-06-22T12:56:33;31.50;88.10
19920;DHT22;10122;50.074;19.920;2023-06-22T12:58:59;31.50;88.20
19920;DHT22;10122;50.074;19.920;2023-06-22T13:01:27;31.40;88.50
19920;DHT22;10122;50.074;19.920;2023-06-22T13:03:53;31.40;88.70
19920;DHT22;10122;50.074;19.920;2023-06-22T13:06:19;31.40;88.20
19920;DHT22;10122;50.074;19.920;2023-06-22T13:08:45;31.30;88.30
19920;DHT22;10122;50.074;19.920;2023-06-22T13:11:10;31.30;88.30
19920;DHT22;10122;50.074;19.920;2023-06-22T13:13:36;31.20;88.80
19920;DHT22;10122;50.074;19.920;2023-06-22T13:16:02;31.00;89.50
19920;DHT22;10122;50.074;19.920;2023-06-22T13:18:27;30.90;89.50
19920;DHT22;10122;50.074;19.920;2023-06-22T13:20:53;30.70;89.10
19920;DHT22;10122;50.074;19.920;2023-06-22T13:23:20;30.60;89.80
19920;DHT22;10122;50.074;19.920;2023-06-22T13:25:47;30.50;90.10
19920;DHT22;10122;50.074;19.920;2023-06-22T13:28:12;30.50;90.30
19920;DHT22;10122;50.074;19.920;2023-06-22T13:30:41;30.50;90.50
19920;DHT22;10122;50.074;19.920;2023-06-22T13:33:07;30.60;90.50
19920;DHT22;10122;50.074;19.920;2023-06-22T13:35:34;30.60;90.40
19920;DHT22;10122;50.074;19.920;2023-06-22T13:38:00;30.60;90.50
19920;DHT22;10122;50.074;19.920;2023-06-22T13:40:26;30.80;90.60
19920;DHT22;10122;50.074;19.920;2023-06-22T13:42:52;30.90;90.40
19920;DHT22;10122;50.074;19.920;2023-06-22T13:45:18;31.00;90.00
19920;DHT22;10122;50.074;19.920;2023-06-22T13:47:45;31.00;90.10
19920;DHT22;10122;50.074;19.920;2023-06-22T13:50:11;31.10;90.20
19920;DHT22;10122;50.074;19.920;2023-06-22T13:52:38;31.10;90.30
19920;DHT22;10122;50.074;19.920;2023-06-22T13:55:04;31.00;89.80
19920;DHT22;10122;50.074;19.920;2023-06-22T13:57:31;31.00;90.10
19920;DHT22;10122;50.074;19.920;2023-06-22T13:59:56;30.90;90.00
19920;DHT22;10122;50.074;19.920;2023-06-22T14:02:22;30.90;90.00
19920;DHT22;10122;50.074;19.920;2023-06-22T14:04:48;31.00;90.20
19920;DHT22;10122;50.074;19.920;2023-06-22T14:07:13;31.10;89.80
19920;DHT22;10122;50.074;19.920;2023-06-22T14:09:39;31.10;89.60
19920;DHT22;10122;50.074;19.920;2023-06-22T14:12:06;31.10;90.00
19920;DHT22;10122;50.074;19.920;2023-06-22T14:14:32;31.00;90.10
19920;DHT22;10122;50.074;19.920;2023-06-22T14:16:58;30.90;90.20
19920;DHT22;10122;50.074;19.920;2023-06-22T14:19:24;30.90;90.40
19920;DHT22;10122;50.074;19.920;2023-06-22T14:21:50;30.80;90.40
19920;DHT22;10122;50.074;19.920;2023-06-22T14:24:16;30.80;90.40
19920;DHT22;10122;50.074;19.920;2023-06-22T14:26:41;30.70;90.50
19920;DHT22;10122;50.074;19.920;2023-06-22T14:29:07;30.70;90.60
19920;DHT22;10122;50.074;19.920;2023-06-22T14:31:33;30.70;90.50
19920;DHT22;10122;50.074;19.920;2023-06-22T14:33:59;30.70;90.70
19920;DHT22;10122;50.074;19.920;2023-06-22T14:36:24;30.60;91.00
19920;DHT22;10122;50.074;19.920;2023-06-22T14:38:50;30.60;91.10
19920;DHT22;10122;50.074;19.920;2023-06-22T14:41:16;30.70;90.90
19920;DHT22;10122;50.074;19.920;2023-06-22T14:43:50;30.70;90.90
19920;DHT22;10122;50.074;19.920;2023-06-22T14:46:17;30.80;91.00
19920;DHT22;10122;50.074;19.920;2023-06-22T14:48:43;30.80;90.90
19920;DHT22;10122;50.074;19.920;2023-06-22T14:51:09;30.80;90.90
19920;DHT22;10122;50.074;19.920;2023-06-22T14:53:36;30.60;90.80
19920;DHT22;10122;50.074;19.920;2023-06-22T14:56:02;30.50;91.30
19920;DHT22;10122;50.074;19.920;2023-06-22T14:58:30;30.40;91.50
19920;DHT22;10122;50.074;19.920;2023-06-22T15:01:02;30.30;91.50
19920;DHT22;10122;50.074;19.920;2023-06-22T15:03:28;30.20;91.70
19920;DHT22;10122;50.074;19.920;2023-06-22T15:05:56;30.20;91.70
19920;DHT22;10122;50.074;19.920;2023-06-22T15:08:22;30.20;91.80
19920;DHT22;10122;50.074;19.920;2023-06-22T15:10:48;30.10;92.00
19920;DHT22;10122;50.074;19.920;2023-06-22T15:13:13;30.10;92.30
19920;DHT22;10122;50.074;19.920;2023-06-22T15:15:39;30.20;92.40
19920;DHT22;10122;50.074;19.920;2023-06-22T15:18:05;30.30;92.00
19920;DHT22;10122;50.074;19.920;2023-06-22T15:20:31;30.30;91.60